Flight Track Log - Related Links

Times and Time Zones

All times are in EDT time to prevent confusion due to time zone crossing. See the N476DS flight status page for this flight to view local times or setup timezone preferences in your user account.

Time Position Orientation Groundspeed Altitude Reporting Facility
EDT Latitude Longitude Course Direction KTS MPH feet Rate Location/Type
Mon 09:48:16 AM 40.8833 -74.3000 180° South 103 119 1,700  Level New York TRACON
Mon 09:49:16 AM 40.8667 -74.3000 180° South 88 101 2,700 900 Climbing New York TRACON
Mon 09:50:16 AM 40.8500 -74.3167 217° Southwest 97 112 3,500 700 Climbing New York TRACON
Mon 09:51:16 AM 40.8167 -74.3500 217° Southwest 107 123 4,100 300 Climbing New York TRACON
Mon 09:52:16 AM 40.8000 -74.3833 237° Southwest 149 171 4,100  Level New York TRACON
Mon 09:53:16 AM 40.7667 -74.4333 229° Southwest 153 176 4,100  Level New York TRACON
Mon 09:54:22 AM 40.7333 -74.4833 229° Southwest 151 174 4,100  Level New York TRACON
Mon 09:55:16 AM 40.7167 -74.5167 237° Southwest 154 177 4,100  Level New York TRACON
Mon 09:56:16 AM 40.6833 -74.5667 229° Southwest 154 177 4,100 -48 Level New York TRACON
Mon 09:57:22 AM 40.6667 -74.6167 246° West 152 175 4,000 -48 Descending New York TRACON
Mon 09:58:22 AM 40.6333 -74.6500 217° Southwest 151 174 4,000 62 Level New York TRACON
Mon 10:00:00 AM 40.6158 -74.7278 253° West  Level FlightAware Approximate
Mon 10:07:00 AM 40.5506 -75.0699 272° West  Level FlightAware Approximate
Mon 10:08:00 AM 40.5520 -75.1195 272° West  Level FlightAware Approximate
Mon 10:09:00 AM 40.5534 -75.1691 272° West  Level FlightAware Approximate
Mon 10:10:00 AM 40.5548 -75.2187 272° West  Level FlightAware Approximate
Mon 10:11:00 AM 40.5561 -75.2683 272° West  Level FlightAware Approximate
Mon 10:12:00 AM 40.5575 -75.3178 272° West  Level FlightAware Approximate
Mon 10:13:00 AM 40.5588 -75.3674 272° West  Level FlightAware Approximate
Mon 10:14:00 AM 40.5601 -75.4170 272° West  Level FlightAware Approximate
Mon 10:15:00 AM 40.5614 -75.4666 272° West  Level FlightAware Approximate
Mon 10:16:00 AM 40.5626 -75.5162 272° West  Level FlightAware Approximate
Mon 10:17:00 AM 40.5638 -75.5658 272° West  Level FlightAware Approximate
Mon 10:18:00 AM 40.5650 -75.6154 272° West  Level FlightAware Approximate
Mon 10:19:00 AM 40.5662 -75.6650 272° West  Level FlightAware Approximate
Mon 10:20:00 AM 40.5841 -75.7047 317° Northwest  Level FlightAware Approximate
Mon 10:21:00 AM 40.6116 -75.7386 317° Northwest  Level FlightAware Approximate
Mon 10:22:00 AM 40.6392 -75.7725 317° Northwest  Level FlightAware Approximate
Mon 10:23:00 AM 40.6667 -75.8064 317° Northwest  Level FlightAware Approximate
Mon 10:24:00 AM 40.6942 -75.8404 317° Northwest  Level FlightAware Approximate
Mon 10:25:00 AM 40.7218 -75.8744 317° Northwest  Level FlightAware Approximate
Mon 10:26:00 AM 40.7493 -75.9084 317° Northwest  Level FlightAware Approximate
Mon 10:27:00 AM 40.7768 -75.9425 317° Northwest  Level FlightAware Approximate
Mon 10:28:00 AM 40.8043 -75.9765 317° Northwest  Level FlightAware Approximate
Mon 10:29:00 AM 40.8317 -76.0107 317° Northwest  Level FlightAware Approximate
Mon 10:29:36 AM 41.0853 -76.0069 332° Northwest 137 158 6,000  Level New York Center
Mon 10:30:00 AM 40.8654 -76.0338 333° Northwest  Level FlightAware Approximate
Mon 10:30:36 AM 41.1128 -76.0419 316° Northwest 137 158 6,000  Level New York Center
Mon 10:31:00 AM 40.8990 -76.0569 333° Northwest  Level FlightAware Approximate
Mon 10:31:36 AM 41.1383 -76.0772 314° West 144 166 6,000  Level New York Center
Mon 10:32:00 AM 40.9327 -76.0801 333° Northwest  Level FlightAware Approximate
Mon 10:32:36 AM 41.1656 -76.1178 312° West 144 166 6,000  Level New York Center
Mon 10:33:00 AM 40.9663 -76.1033 332° Northwest  Level FlightAware Approximate
Mon 10:33:36 AM 41.1892 -76.1472 317° Northwest 139 160 6,000  Level New York Center
Mon 10:34:36 AM 41.2167 -76.1881 312° West 139 160 6,000  Level New York Center
Mon 10:35:36 AM 41.2439 -76.2261 314° West 139 160 6,000  Level New York Center
Mon 10:36:36 AM 41.2694 -76.2614 314° West 139 160 6,000  Level New York Center
Mon 10:37:36 AM 41.2950 -76.2967 314° West 139 160 6,000  Level New York Center
Mon 10:38:36 AM 41.3164 -76.3258 314° West 139 160 6,000  Level New York Center
Mon 10:39:36 AM 41.3458 -76.3642 316° Northwest 139 160 6,000  Level New York Center
Mon 10:40:36 AM 41.3714 -76.3997 314° West 139 160 6,000  Level New York Center
Mon 10:41:36 AM 41.3967 -76.4350 314° West 139 160 6,000  Level New York Center
Mon 10:42:36 AM 41.4200 -76.4700 312° West 139 160 6,000  Level New York Center
Mon 10:43:36 AM 41.4436 -76.5025 314° West 139 160 6,000  Level New York Center
Mon 10:44:36 AM 41.4728 -76.5439 313° West 139 160 6,000  Level New York Center
Mon 10:45:36 AM 41.4981 -76.5792 314° West 139 160 6,000  Level New York Center
Mon 10:46:36 AM 41.5233 -76.6147 314° West 139 160 6,000  Level New York Center
Mon 10:47:36 AM 41.5467 -76.6472 314° West 139 160 6,000  Level New York Center
Mon 10:48:36 AM 41.5722 -76.6828 314° West 139 160 6,000 50 Level New York Center
Mon 10:49:36 AM 41.6014 -76.7242 313° West 139 160 6,100 50 Climbing New York Center
Mon 10:50:36 AM 41.6267 -76.7597 314° West 139 160 6,100  Level New York Center
Mon 10:51:36 AM 41.6539 -76.7983 313° West 139 160 6,100  Level New York Center
Mon 10:52:36 AM 41.6792 -76.8339 314° West 139 160 6,100  Level New York Center
Mon 10:53:36 AM 41.7042 -76.8694 313° West 139 160 6,100  Level New York Center
Mon 10:54:36 AM 41.7317 -76.9053 316° Northwest 145 167 6,100 -50 Level New York Center
Mon 10:55:36 AM 41.7567 -76.9439 311° West 145 167 6,000 -50 Descending New York Center
Mon 10:56:36 AM 41.7819 -76.9794 314° West 145 167 6,000  Level New York Center
Mon 10:57:36 AM 41.8069 -77.0181 311° West 145 167 6,000  Level New York Center
Mon 10:58:36 AM 41.8325 -77.0483 319° Northwest 145 167 6,000  Level New York Center
Mon 10:59:36 AM 41.8633 -77.0931 313° West 145 167 6,000  Level New York Center
Mon 11:00:20 AM 41.8831 -77.1208 314° West 139 160 6,000  Level Cleveland Center
Mon 11:01:22 AM 41.9092 -77.1583 313° West 139 160 6,000  Level Cleveland Center
Mon 11:02:24 AM 41.9367 -77.1956 315° West 139 160 6,000  Level Cleveland Center
Mon 11:03:26 AM 41.9631 -77.2339 313° West 140 161 6,000  Level Cleveland Center
Mon 11:04:28 AM 41.9892 -77.2722 313° West 139 160 6,000  Level Cleveland Center
Mon 11:05:31 AM 42.0156 -77.3097 313° West 138 159 6,000  Level Cleveland Center
Mon 11:06:33 AM 42.0475 -77.3539 314° West 138 159 6,000  Level Cleveland Center
Mon 11:07:35 AM 42.0739 -77.3922 313° West 139 160 6,000  Level Cleveland Center
Mon 11:08:37 AM 42.0997 -77.4300 313° West 138 159 6,000  Level Cleveland Center
Mon 11:09:39 AM 42.1258 -77.4658 314° West 137 158 6,000  Level Cleveland Center
Mon 11:10:41 AM 42.1511 -77.5022 313° West 134 154 6,000  Level Cleveland Center
Mon 11:11:43 AM 42.1761 -77.5386 313° West 133 153 6,000  Level Cleveland Center
Mon 11:12:45 AM 42.2067 -77.5844 312° West 136 157 6,000 145 Level Cleveland Center
Mon 11:13:47 AM 42.2319 -77.6197 314° West 134 154 6,300 387 Climbing Cleveland Center
Mon 11:14:49 AM 42.2528 -77.6500 313° West 116 133 6,800 532 Climbing Cleveland Center
Mon 11:15:51 AM 42.2733 -77.6792 314° West 108 124 7,400 532 Climbing Cleveland Center
Mon 11:16:53 AM 42.2928 -77.7081 312° West 105 121 7,900 290 Climbing Cleveland Center
Mon 11:17:55 AM 42.3147 -77.7400 313° West 111 128 8,000 48 Climbing Cleveland Center
Mon 11:18:57 AM 42.3450 -77.7836 313° West 128 147 8,000  Level Cleveland Center
Mon 11:19:59 AM 42.3703 -77.8194 314° West 131 151 8,000  Level Cleveland Center
Mon 11:21:02 AM 42.3950 -77.8561 312° West 133 153 8,000  Level Cleveland Center
Mon 11:22:04 AM 42.4208 -77.8939 313° West 135 155 8,000  Level Cleveland Center
Mon 11:23:06 AM 42.4472 -77.9314 314° West 136 157 8,000  Level Cleveland Center
Mon 11:24:08 AM 42.4725 -77.9694 312° West 137 158 8,000  Level Cleveland Center
Mon 11:25:10 AM 42.4983 -78.0072 313° West 137 158 8,000 -145 Level Cleveland Center
Mon 11:26:12 AM 42.5300 -78.0533 313° West 138 159 7,700 -435 Descending Cleveland Center
Mon 11:27:14 AM 42.5600 -78.0975 313° West 155 178 7,100 -581 Descending Cleveland Center
Mon 11:28:16 AM 42.5900 -78.1419 313° West 159 183 6,500 -532 Descending Cleveland Center
Mon 11:29:18 AM 42.6208 -78.1858 314° West 160 184 6,000 -242 Descending Cleveland Center
Mon 11:30:20 AM 42.6489 -78.2264 313° West 155 178 6,000  Level Cleveland Center
Mon 11:31:22 AM 42.6753 -78.2667 312° West 148 170 6,000  Level Cleveland Center
Mon 11:32:23 AM 42.7061 -78.3136 312° West 143 165 6,000  Level Cleveland Center
Mon 11:33:25 AM 42.7336 -78.3533 313° West 146 168 6,000  Level Cleveland Center
Mon 11:34:27 AM 42.7619 -78.3931 314° West 141 162 6,000  Level Cleveland Center
Mon 11:35:29 AM 42.7894 -78.4361 311° West 143 165 6,000  Level Cleveland Center
Mon 11:36:31 AM 42.8175 -78.4783 312° West 145 167 6,000  Level Cleveland Center
Mon 11:37:33 AM 42.8444 -78.5219 310° West 145 167 6,000  Level Cleveland Center
Mon 11:38:35 AM 42.8733 -78.5650 312° West 147 169 6,000  Level Cleveland Center
Mon 11:39:37 AM 42.8997 -78.6033 313° West 146 168 6,000  Level Cleveland Center
Mon 11:40:22 AM 42.9167 -78.6333 308° West 145 167 6,000  Level Buffalo TRACON
Mon 11:41:22 AM 42.9333 -78.6833 294° West 132 152 6,000  Level Buffalo TRACON
Mon 11:42:22 AM 42.9333 -78.7333 270° West 134 154 6,000  Level Buffalo TRACON
Mon 11:43:22 AM 42.9333 -78.7833 270° West 135 155 6,000  Level Buffalo TRACON
Mon 11:44:22 AM 42.9333 -78.8333 270° West 130 150 6,000  Level Buffalo TRACON
Mon 11:45:22 AM 42.9500 -78.8833 294° West 130 150 6,000  Level Buffalo TRACON
Mon 11:46:22 AM 42.9500 -78.9333 270° West 132 152 6,000  Level Buffalo TRACON
Mon 11:47:22 AM 42.9333 -78.9667 236° Southwest 130 150 6,000  Level Toronto Center
Mon 11:48:22 AM 42.9333 -79.0167 270° West 130 150 6,000  Level Toronto Center
Mon 11:49:22 AM 42.9500 -79.0667 294° West 130 150 6,000  Level Toronto Center
Mon 11:50:22 AM 42.9500 -79.1167 270° West 140 161 6,000  Level Toronto Center
Mon 11:51:22 AM 42.9500 -79.1500 270° West 140 161 6,000  Level Toronto Center
Mon 11:52:22 AM 42.9500 -79.2167 270° West 130 150 6,000  Level Toronto Center
Mon 11:53:22 AM 42.9500 -79.2667 270° West 130 150 6,000  Level Toronto Center
Mon 11:54:22 AM 42.9500 -79.3167 270° West 130 150 6,000 -50 Level Toronto Center
Mon 11:55:22 AM 42.9500 -79.3667 270° West 140 161 5,900 -50 Descending Toronto Center
Mon 11:56:22 AM 42.9667 -79.4333 289° West 130 150 5,900  Level Toronto Center
Mon 11:57:22 AM 42.9667 -79.4667 270° West 130 150 5,900  Level Toronto Center
Mon 11:58:22 AM 42.9667 -79.5167 270° West 130 150 5,900  Level Toronto Center
Mon 11:59:22 AM 42.9667 -79.5667 270° West 130 150 5,900  Level Toronto Center
Mon 12:00:22 PM 42.9667 -79.6167 270° West 130 150 5,900  Level Toronto Center
Mon 12:01:22 PM 42.9667 -79.6500 270° West 120 138 5,900  Level Toronto Center
Mon 12:02:22 PM 42.9667 -79.7000 270° West 130 150 5,900 50 Level Toronto Center
Mon 12:03:22 PM 42.9667 -79.7667 270° West 120 138 6,000 50 Climbing Toronto Center
Mon 12:04:22 PM 42.9833 -79.8167 295° West 130 150 6,000  Level Toronto Center
Mon 12:05:22 PM 42.9833 -79.8667 270° West 120 138 6,000  Level Toronto Center
Mon 12:06:22 PM 42.9833 -79.9000 270° West 120 138 6,000  Level Toronto Center
Mon 12:07:22 PM 42.9833 -79.9500 270° West 120 138 6,000  Level Toronto Center
Mon 12:08:22 PM 42.9833 -80.0000 270° West 120 138 6,000  Level Toronto Center
Mon 12:09:22 PM 42.9833 -80.0500 270° West 120 138 6,000  Level Toronto Center
Mon 12:10:22 PM 42.9833 -80.0833 270° West 130 150 6,000  Level Toronto Center
Mon 12:11:22 PM 42.9833 -80.1333 270° West 130 150 6,000  Level Toronto Center
Mon 12:12:22 PM 42.9833 -80.1833 270° West 120 138 6,000  Level Toronto Center
Mon 12:13:22 PM 43.0000 -80.2333 295° West 120 138 6,000  Level Toronto Center
Mon 12:14:22 PM 43.0000 -80.2667 270° West 120 138 6,000  Level Toronto Center
Mon 12:15:22 PM 43.0000 -80.3167 270° West 120 138 6,000  Level Toronto Center
Mon 12:16:22 PM 43.0000 -80.3667 270° West 120 138 6,000  Level Toronto Center
Mon 12:17:22 PM 43.0000 -80.4000 270° West 120 138 6,000  Level Toronto Center
Mon 12:18:22 PM 43.0167 -80.4500 295° West 120 138 6,000  Level Toronto Center
Mon 12:19:22 PM 43.0333 -80.5000 295° West 120 138 6,000 -300 Level Toronto Center
Mon 12:20:22 PM 43.0333 -80.5500 270° West 140 161 5,400 -779 Descending Toronto Center
Mon 12:21:56 PM 43.0589 -80.6581 288° West 156 180 4,000 -885 Descending Cleveland Center
Mon 12:22:58 PM 43.0697 -80.7178 284° West 156 180 3,100 -677 Descending Cleveland Center
Mon 12:24:00 PM 43.0797 -80.7736 284° West 145 167 2,600 -242 Descending Cleveland Center
Mon 12:25:02 PM 43.0881 -80.8178 285° West 120 138 2,600 -97 Level Cleveland Center
Mon 12:26:04 PM 43.0956 -80.8625 283° West 117 135 2,400 -290 Descending Cleveland Center
Mon 12:27:06 PM 43.1008 -80.9106 279° West 122 140 2,000 -194 Descending Cleveland Center
Mon 12:28:08 PM 43.0906 -80.9467 249° West 110 127 2,000  Level Cleveland Center
Mon 12:29:10 PM 43.0800 -80.9878 251° West 110 127 2,000  Level Cleveland Center
Mon 12:30:12 PM 43.0697 -81.0275 251° West 114 131 2,000 48 Level Cleveland Center
Mon 12:31:14 PM 43.0586 -81.0703 250° West 113 130 2,100 -185 Climbing Cleveland Center
Mon 12:32:22 PM 43.0333 -81.1000 221° Southwest 90 104 1,600 -422 Descending Toronto Center
Mon 12:33:22 PM 43.0333 -81.1167 270° West 80 92 1,200 -350 Descending Toronto Center
Mon 12:34:22 PM 43.0167 -81.1333 216° Southwest 70 81 900 -300 Descending Toronto Center

Login

Don't have an account? Register now (free) for customized features, flight alerts, and more!